sensor_id;sensor_type;location;lat;lon;timestamp;pressure;altitude;pressure_sealevel;temperature
15079;BMP180;6932;51.438;5.470;2023-04-01T00:00:34;98797.00;;;16.10
15079;BMP180;6932;51.438;5.470;2023-04-01T00:02:59;98780.00;;;16.10
15079;BMP180;6932;51.438;5.470;2023-04-01T00:05:26;98795.00;;;16.10
15079;BMP180;6932;51.438;5.470;2023-04-01T00:07:52;98788.00;;;16.10
15079;BMP180;6932;51.438;5.470;2023-04-01T00:10:17;98782.00;;;16.10
15079;BMP180;6932;51.438;5.470;2023-04-01T00:12:44;98795.00;;;16.10
15079;BMP180;6932;51.438;5.470;2023-04-01T00:15:11;98801.00;;;16.10
15079;BMP180;6932;51.438;5.470;2023-04-01T00:17:49;98788.00;;;16.10
15079;BMP180;6932;51.438;5.470;2023-04-01T00:20:15;98797.00;;;16.10
15079;BMP180;6932;51.438;5.470;2023-04-01T00:22:41;98782.00;;;16.10
15079;BMP180;6932;51.438;5.470;2023-04-01T00:25:07;98794.00;;;16.10
15079;BMP180;6932;51.438;5.470;2023-04-01T00:27:33;98795.00;;;16.10
15079;BMP180;6932;51.438;5.470;2023-04-01T00:29:59;98807.00;;;16.10
15079;BMP180;6932;51.438;5.470;2023-04-01T00:32:26;98810.00;;;16.10
15079;BMP180;6932;51.438;5.470;2023-04-01T00:34:52;98802.00;;;16.10
15079;BMP180;6932;51.438;5.470;2023-04-01T00:37:19;98798.00;;;16.10
15079;BMP180;6932;51.438;5.470;2023-04-01T00:39:47;98787.00;;;16.10
15079;BMP180;6932;51.438;5.470;2023-04-01T00:42:12;98810.00;;;16.10
15079;BMP180;6932;51.438;5.470;2023-04-01T00:44:40;98814.00;;;16.10
15079;BMP180;6932;51.438;5.470;2023-04-01T00:47:06;98808.00;;;16.10
15079;BMP180;6932;51.438;5.470;2023-04-01T00:49:43;98818.00;;;16.10
15079;BMP180;6932;51.438;5.470;2023-04-01T00:52:14;98820.00;;;16.10
15079;BMP180;6932;51.438;5.470;2023-04-01T00:54:45;98820.00;;;16.00
15079;BMP180;6932;51.438;5.470;2023-04-01T00:57:25;98820.00;;;16.10
15079;BMP180;6932;51.438;5.470;2023-04-01T00:59:54;98831.00;;;16.00
15079;BMP180;6932;51.438;5.470;2023-04-01T01:02:22;98829.00;;;16.00
15079;BMP180;6932;51.438;5.470;2023-04-01T01:04:48;98833.00;;;16.00
15079;BMP180;6932;51.438;5.470;2023-04-01T01:15:45;98837.00;;;16.00
15079;BMP180;6932;51.438;5.470;2023-04-01T01:18:35;98844.00;;;16.00
15079;BMP180;6932;51.438;5.470;2023-04-01T01:27:13;98838.00;;;15.90
15079;BMP180;6932;51.438;5.470;2023-04-01T01:30:15;98836.00;;;15.90
15079;BMP180;6932;51.438;5.470;2023-04-01T01:35:40;98843.00;;;15.90
15079;BMP180;6932;51.438;5.470;2023-04-01T01:38:15;98847.00;;;15.90
15079;BMP180;6932;51.438;5.470;2023-04-01T01:40:47;98849.00;;;15.90
15079;BMP180;6932;51.438;5.470;2023-04-01T01:43:29;98839.00;;;15.90
15079;BMP180;6932;51.438;5.470;2023-04-01T01:46:05;98836.00;;;15.90
15079;BMP180;6932;51.438;5.470;2023-04-01T01:48:34;98853.00;;;15.90
15079;BMP180;6932;51.438;5.470;2023-04-01T01:51:01;98854.00;;;15.90
15079;BMP180;6932;51.438;5.470;2023-04-01T01:53:27;98854.00;;;15.90
15079;BMP180;6932;51.438;5.470;2023-04-01T01:55:53;98864.00;;;15.90
15079;BMP180;6932;51.438;5.470;2023-04-01T01:58:30;98869.00;;;15.90
15079;BMP180;6932;51.438;5.470;2023-04-01T02:01:05;98859.00;;;15.90
15079;BMP180;6932;51.438;5.470;2023-04-01T02:03:35;98866.00;;;15.90
15079;BMP180;6932;51.438;5.470;2023-04-01T02:06:10;98870.00;;;15.90
15079;BMP180;6932;51.438;5.470;2023-04-01T02:08:45;98866.00;;;15.90
15079;BMP180;6932;51.438;5.470;2023-04-01T02:11:16;98868.00;;;15.90
15079;BMP180;6932;51.438;5.470;2023-04-01T02:13:55;98872.00;;;15.90
15079;BMP180;6932;51.438;5.470;2023-04-01T02:16:33;98873.00;;;15.90
15079;BMP180;6932;51.438;5.470;2023-04-01T02:19:02;98885.00;;;15.90
15079;BMP180;6932;51.438;5.470;2023-04-01T02:21:33;98874.00;;;15.90
15079;BMP180;6932;51.438;5.470;2023-04-01T02:24:04;98878.00;;;15.90
15079;BMP180;6932;51.438;5.470;2023-04-01T02:26:31;98891.00;;;15.90
15079;BMP180;6932;51.438;5.470;2023-04-01T02:28:59;98883.00;;;15.90
15079;BMP180;6932;51.438;5.470;2023-04-01T02:31:25;98878.00;;;15.80
15079;BMP180;6932;51.438;5.470;2023-04-01T02:33:51;98885.00;;;15.90
15079;BMP180;6932;51.438;5.470;2023-04-01T02:36:18;98888.00;;;15.80
15079;BMP180;6932;51.438;5.470;2023-04-01T02:38:45;98884.00;;;15.80
15079;BMP180;6932;51.438;5.470;2023-04-01T02:41:12;98893.00;;;15.90
15079;BMP180;6932;51.438;5.470;2023-04-01T02:43:38;98887.00;;;15.90
15079;BMP180;6932;51.438;5.470;2023-04-01T02:46:04;98892.00;;;15.80
15079;BMP180;6932;51.438;5.470;2023-04-01T02:48:30;98889.00;;;15.90
15079;BMP180;6932;51.438;5.470;2023-04-01T02:50:56;98895.00;;;15.80
15079;BMP180;6932;51.438;5.470;2023-04-01T02:53:22;98904.00;;;15.90
15079;BMP180;6932;51.438;5.470;2023-04-01T02:55:48;98891.00;;;15.80
15079;BMP180;6932;51.438;5.470;2023-04-01T02:58:17;98899.00;;;15.80
15079;BMP180;6932;51.438;5.470;2023-04-01T03:00:43;98895.00;;;15.80
15079;BMP180;6932;51.438;5.470;2023-04-01T03:03:09;98894.00;;;15.80
15079;BMP180;6932;51.438;5.470;2023-04-01T03:05:35;98909.00;;;15.80
15079;BMP180;6932;51.438;5.470;2023-04-01T03:08:02;98893.00;;;15.80
15079;BMP180;6932;51.438;5.470;2023-04-01T03:10:28;98896.00;;;15.80
15079;BMP180;6932;51.438;5.470;2023-04-01T03:12:54;98894.00;;;15.80
15079;BMP180;6932;51.438;5.470;2023-04-01T03:15:19;98902.00;;;15.80
15079;BMP180;6932;51.438;5.470;2023-04-01T03:17:45;98908.00;;;15.80
15079;BMP180;6932;51.438;5.470;2023-04-01T03:20:12;98906.00;;;15.80
15079;BMP180;6932;51.438;5.470;2023-04-01T03:22:39;98914.00;;;15.80
15079;BMP180;6932;51.438;5.470;2023-04-01T03:25:06;98899.00;;;15.80
15079;BMP180;6932;51.438;5.470;2023-04-01T03:28:16;98914.00;;;15.80
15079;BMP180;6932;51.438;5.470;2023-04-01T03:30:42;98916.00;;;15.70
15079;BMP180;6932;51.438;5.470;2023-04-01T03:33:08;98925.00;;;15.70
15079;BMP180;6932;51.438;5.470;2023-04-01T03:35:33;98928.00;;;15.70
15079;BMP180;6932;51.438;5.470;2023-04-01T03:38:01;98922.00;;;15.70
15079;BMP180;6932;51.438;5.470;2023-04-01T03:40:27;98927.00;;;15.70
15079;BMP180;6932;51.438;5.470;2023-04-01T03:43:02;98931.00;;;15.70
15079;BMP180;6932;51.438;5.470;2023-04-01T03:45:29;98931.00;;;15.70
15079;BMP180;6932;51.438;5.470;2023-04-01T03:47:54;98930.00;;;15.70
15079;BMP180;6932;51.438;5.470;2023-04-01T03:50:20;98932.00;;;15.70
15079;BMP180;6932;51.438;5.470;2023-04-01T03:52:46;98931.00;;;15.70
15079;BMP180;6932;51.438;5.470;2023-04-01T03:55:11;98934.00;;;15.70
15079;BMP180;6932;51.438;5.470;2023-04-01T03:57:40;98940.00;;;15.70
15079;BMP180;6932;51.438;5.470;2023-04-01T04:00:07;98935.00;;;15.70
15079;BMP180;6932;51.438;5.470;2023-04-01T04:02:34;98939.00;;;15.70
15079;BMP180;6932;51.438;5.470;2023-04-01T04:05:01;98939.00;;;15.70
15079;BMP180;6932;51.438;5.470;2023-04-01T04:07:27;98941.00;;;15.70
15079;BMP180;6932;51.438;5.470;2023-04-01T04:09:52;98943.00;;;15.70
15079;BMP180;6932;51.438;5.470;2023-04-01T04:12:18;98944.00;;;15.70
15079;BMP180;6932;51.438;5.470;2023-04-01T04:14:44;98942.00;;;15.70
15079;BMP180;6932;51.438;5.470;2023-04-01T04:17:11;98954.00;;;15.60
15079;BMP180;6932;51.438;5.470;2023-04-01T04:19:42;98945.00;;;15.60
15079;BMP180;6932;51.438;5.470;2023-04-01T04:22:08;98951.00;;;15.70
15079;BMP180;6932;51.438;5.470;2023-04-01T04:24:37;98950.00;;;15.60
15079;BMP180;6932;51.438;5.470;2023-04-01T04:27:04;98957.00;;;15.60
15079;BMP180;6932;51.438;5.470;2023-04-01T04:29:29;98946.00;;;15.60
15079;BMP180;6932;51.438;5.470;2023-04-01T04:31:55;98964.00;;;15.60
15079;BMP180;6932;51.438;5.470;2023-04-01T04:34:21;98962.00;;;15.60
15079;BMP180;6932;51.438;5.470;2023-04-01T04:36:48;98969.00;;;15.60
15079;BMP180;6932;51.438;5.470;2023-04-01T04:39:15;98964.00;;;15.60
15079;BMP180;6932;51.438;5.470;2023-04-01T04:41:41;98968.00;;;15.60
15079;BMP180;6932;51.438;5.470;2023-04-01T04:44:06;98964.00;;;15.60
15079;BMP180;6932;51.438;5.470;2023-04-01T04:46:32;98971.00;;;15.50
15079;BMP180;6932;51.438;5.470;2023-04-01T04:48:58;98979.00;;;15.50
15079;BMP180;6932;51.438;5.470;2023-04-01T04:51:24;98980.00;;;15.50
15079;BMP180;6932;51.438;5.470;2023-04-01T04:53:50;98981.00;;;15.50
15079;BMP180;6932;51.438;5.470;2023-04-01T04:56:23;98984.00;;;15.50
15079;BMP180;6932;51.438;5.470;2023-04-01T04:58:50;98996.00;;;15.50
15079;BMP180;6932;51.438;5.470;2023-04-01T05:01:17;98991.00;;;15.50
15079;BMP180;6932;51.438;5.470;2023-04-01T05:03:43;99001.00;;;15.50
15079;BMP180;6932;51.438;5.470;2023-04-01T05:06:13;98998.00;;;15.50
15079;BMP180;6932;51.438;5.470;2023-04-01T05:08:41;98996.00;;;15.50
15079;BMP180;6932;51.438;5.470;2023-04-01T05:11:13;99002.00;;;15.50
15079;BMP180;6932;51.438;5.470;2023-04-01T05:13:39;98996.00;;;15.50
15079;BMP180;6932;51.438;5.470;2023-04-01T05:16:11;99006.00;;;15.50
15079;BMP180;6932;51.438;5.470;2023-04-01T05:18:40;99001.00;;;15.50
15079;BMP180;6932;51.438;5.470;2023-04-01T05:21:09;99014.00;;;15.50
15079;BMP180;6932;51.438;5.470;2023-04-01T05:23:35;99010.00;;;15.50
15079;BMP180;6932;51.438;5.470;2023-04-01T05:26:13;99021.00;;;15.50
15079;BMP180;6932;51.438;5.470;2023-04-01T05:28:40;99028.00;;;15.50
15079;BMP180;6932;51.438;5.470;2023-04-01T05:31:07;99021.00;;;15.50
15079;BMP180;6932;51.438;5.470;2023-04-01T05:33:33;99025.00;;;15.40
15079;BMP180;6932;51.438;5.470;2023-04-01T05:36:08;99027.00;;;15.50
15079;BMP180;6932;51.438;5.470;2023-04-01T05:38:35;99033.00;;;15.40
15079;BMP180;6932;51.438;5.470;2023-04-01T05:41:02;99034.00;;;15.40
15079;BMP180;6932;51.438;5.470;2023-04-01T05:43:28;99048.00;;;15.40
15079;BMP180;6932;51.438;5.470;2023-04-01T05:45:55;99037.00;;;15.40
15079;BMP180;6932;51.438;5.470;2023-04-01T05:48:21;99048.00;;;15.40
15079;BMP180;6932;51.438;5.470;2023-04-01T05:50:47;99063.00;;;15.40
15079;BMP180;6932;51.438;5.470;2023-04-01T05:53:13;99054.00;;;15.40
15079;BMP180;6932;51.438;5.470;2023-04-01T05:55:38;99064.00;;;15.40
15079;BMP180;6932;51.438;5.470;2023-04-01T06:01:45;99075.00;;;15.30
15079;BMP180;6932;51.438;5.470;2023-04-01T06:04:18;99068.00;;;15.40
15079;BMP180;6932;51.438;5.470;2023-04-01T06:06:44;99075.00;;;15.40
15079;BMP180;6932;51.438;5.470;2023-04-01T06:09:28;99083.00;;;15.40
15079;BMP180;6932;51.438;5.470;2023-04-01T06:15:58;99087.00;;;15.30
15079;BMP180;6932;51.438;5.470;2023-04-01T06:32:22;99124.00;;;15.30
15079;BMP180;6932;51.438;5.470;2023-04-01T06:41:24;99128.00;;;15.30
15079;BMP180;6932;51.438;5.470;2023-04-01T06:58:46;99136.00;;;15.30
15079;BMP180;6932;51.438;5.470;2023-04-01T07:01:22;99147.00;;;15.30
15079;BMP180;6932;51.438;5.470;2023-04-01T07:04:30;99151.00;;;15.30
15079;BMP180;6932;51.438;5.470;2023-04-01T07:07:05;99156.00;;;15.40
15079;BMP180;6932;51.438;5.470;2023-04-01T07:09:41;99161.00;;;15.40
15079;BMP180;6932;51.438;5.470;2023-04-01T07:13:06;99167.00;;;15.40
15079;BMP180;6932;51.438;5.470;2023-04-01T07:15:42;99168.00;;;15.40
15079;BMP180;6932;51.438;5.470;2023-04-01T07:18:23;99170.00;;;15.50
15079;BMP180;6932;51.438;5.470;2023-04-01T07:20:54;99182.00;;;15.50
15079;BMP180;6932;51.438;5.470;2023-04-01T07:23:39;99184.00;;;15.50
15079;BMP180;6932;51.438;5.470;2023-04-01T07:26:29;99181.00;;;15.50
15079;BMP180;6932;51.438;5.470;2023-04-01T07:28:57;99191.00;;;15.60
15079;BMP180;6932;51.438;5.470;2023-04-01T08:01:45;99228.00;;;15.70
15079;BMP180;6932;51.438;5.470;2023-04-01T08:04:57;99238.00;;;15.70
15079;BMP180;6932;51.438;5.470;2023-04-01T08:22:18;99260.00;;;15.80
15079;BMP180;6932;51.438;5.470;2023-04-01T08:24:48;99263.00;;;15.90
15079;BMP180;6932;51.438;5.470;2023-04-01T08:27:24;99274.00;;;15.90
15079;BMP180;6932;51.438;5.470;2023-04-01T08:30:01;99268.00;;;15.90
15079;BMP180;6932;51.438;5.470;2023-04-01T08:32:39;99269.00;;;16.00
15079;BMP180;6932;51.438;5.470;2023-04-01T08:35:31;99276.00;;;16.00
15079;BMP180;6932;51.438;5.470;2023-04-01T08:38:11;99278.00;;;16.10
15079;BMP180;6932;51.438;5.470;2023-04-01T08:41:01;99282.00;;;16.10
15079;BMP180;6932;51.438;5.470;2023-04-01T08:46:32;99284.00;;;16.20
15079;BMP180;6932;51.438;5.470;2023-04-01T08:52:25;99296.00;;;16.30
15079;BMP180;6932;51.438;5.470;2023-04-01T08:55:27;99291.00;;;16.40
15079;BMP180;6932;51.438;5.470;2023-04-01T09:01:43;99314.00;;;16.40
15079;BMP180;6932;51.438;5.470;2023-04-01T09:04:43;99318.00;;;16.40
15079;BMP180;6932;51.438;5.470;2023-04-01T09:11:11;99321.00;;;16.40
15079;BMP180;6932;51.438;5.470;2023-04-01T09:37:53;99355.00;;;16.60
15079;BMP180;6932;51.438;5.470;2023-04-01T09:46:55;99364.00;;;16.70
15079;BMP180;6932;51.438;5.470;2023-04-01T09:52:40;99371.00;;;16.70
15079;BMP180;6932;51.438;5.470;2023-04-01T10:04:09;99384.00;;;16.70
15079;BMP180;6932;51.438;5.470;2023-04-01T10:43:34;99415.00;;;16.40
15079;BMP180;6932;51.438;5.470;2023-04-01T10:50:13;99437.00;;;16.40
15079;BMP180;6932;51.438;5.470;2023-04-01T11:06:40;99441.00;;;16.30
15079;BMP180;6932;51.438;5.470;2023-04-01T11:18:17;99448.00;;;16.40
15079;BMP180;6932;51.438;5.470;2023-04-01T11:44:27;99480.00;;;15.40
15079;BMP180;6932;51.438;5.470;2023-04-01T11:50:26;99476.00;;;15.70
15079;BMP180;6932;51.438;5.470;2023-04-01T12:02:40;99504.00;;;16.00
15079;BMP180;6932;51.438;5.470;2023-04-01T12:04:52;99503.00;;;16.10
15079;BMP180;6932;51.438;5.470;2023-04-01T12:31:18;99533.00;;;16.30
15079;BMP180;6932;51.438;5.470;2023-04-01T12:37:15;99532.00;;;16.40
15079;BMP180;6932;51.438;5.470;2023-04-01T13:08:31;99570.00;;;16.40
15079;BMP180;6932;51.438;5.470;2023-04-01T13:21:01;99572.00;;;16.40
15079;BMP180;6932;51.438;5.470;2023-04-01T13:27:09;99583.00;;;16.50
15079;BMP180;6932;51.438;5.470;2023-04-01T13:35:30;99598.00;;;16.50
15079;BMP180;6932;51.438;5.470;2023-04-01T13:44:12;99605.00;;;16.50
15079;BMP180;6932;51.438;5.470;2023-04-01T13:47:04;99608.00;;;16.50
15079;BMP180;6932;51.438;5.470;2023-04-01T14:22:34;99636.00;;;16.30
15079;BMP180;6932;51.438;5.470;2023-04-01T14:29:49;99654.00;;;16.30
15079;BMP180;6932;51.438;5.470;2023-04-01T14:34:19;99647.00;;;16.30
15079;BMP180;6932;51.438;5.470;2023-04-01T14:54:48;99680.00;;;16.20
15079;BMP180;6932;51.438;5.470;2023-04-01T14:57:29;99673.00;;;16.20
15079;BMP180;6932;51.438;5.470;2023-04-01T15:00:15;99688.00;;;16.30
15079;BMP180;6932;51.438;5.470;2023-04-01T15:02:57;99683.00;;;16.30
15079;BMP180;6932;51.438;5.470;2023-04-01T15:05:56;99686.00;;;16.30
15079;BMP180;6932;51.438;5.470;2023-04-01T15:40:20;99727.00;;;16.20
15079;BMP180;6932;51.438;5.470;2023-04-01T15:49:43;99733.00;;;16.20
15079;BMP180;6932;51.438;5.470;2023-04-01T15:52:18;99738.00;;;16.20
15079;BMP180;6932;51.438;5.470;2023-04-01T15:55:13;99747.00;;;16.20
15079;BMP180;6932;51.438;5.470;2023-04-01T16:01:19;99754.00;;;16.20
15079;BMP180;6932;51.438;5.470;2023-04-01T16:04:27;99748.00;;;16.20
15079;BMP180;6932;51.438;5.470;2023-04-01T16:23:46;99773.00;;;16.10
15079;BMP180;6932;51.438;5.470;2023-04-01T16:26:39;99771.00;;;16.10
15079;BMP180;6932;51.438;5.470;2023-04-01T16:29:26;99769.00;;;16.10
15079;BMP180;6932;51.438;5.470;2023-04-01T16:34:43;99773.00;;;16.10
15079;BMP180;6932;51.438;5.470;2023-04-01T16:37:38;99778.00;;;16.10
15079;BMP180;6932;51.438;5.470;2023-04-01T22:24:24;100450.00;;;14.50
15079;BMP180;6932;51.438;5.470;2023-04-01T22:27:13;100461.00;;;14.50
15079;BMP180;6932;51.438;5.470;2023-04-01T22:29:52;100461.00;;;14.50
15079;BMP180;6932;51.438;5.470;2023-04-01T22:49:41;100483.00;;;14.30
15079;BMP180;6932;51.438;5.470;2023-04-01T22:52:34;100485.00;;;14.40
15079;BMP180;6932;51.438;5.470;2023-04-01T22:55:28;100512.00;;;14.30
15079;BMP180;6932;51.438;5.470;2023-04-01T22:58:04;100500.00;;;14.30
15079;BMP180;6932;51.438;5.470;2023-04-01T23:00:50;100523.00;;;14.30
15079;BMP180;6932;51.438;5.470;2023-04-01T23:03:32;100515.00;;;14.30
15079;BMP180;6932;51.438;5.470;2023-04-01T23:06:01;100518.00;;;14.30
15079;BMP180;6932;51.438;5.470;2023-04-01T23:08:57;100524.00;;;14.30
15079;BMP180;6932;51.438;5.470;2023-04-01T23:15:17;100542.00;;;14.20
15079;BMP180;6932;51.438;5.470;2023-04-01T23:21:13;100549.00;;;14.20
15079;BMP180;6932;51.438;5.470;2023-04-01T23:27:12;100559.00;;;14.10
15079;BMP180;6932;51.438;5.470;2023-04-01T23:29:41;100562.00;;;14.10
15079;BMP180;6932;51.438;5.470;2023-04-01T23:32:34;100562.00;;;14.10
15079;BMP180;6932;51.438;5.470;2023-04-01T23:46:12;100600.00;;;14.00
15079;BMP180;6932;51.438;5.470;2023-04-01T23:48:45;100614.00;;;14.00
15079;BMP180;6932;51.438;5.470;2023-04-01T23:52:10;100614.00;;;14.00
15079;BMP180;6932;51.438;5.470;2023-04-01T23:54:55;100616.00;;;14.00
15079;BMP180;6932;51.438;5.470;2023-04-01T23:57:32;100632.00;;;14.00
